sensor_id;sensor_type;location;lat;lon;timestamp;temperature;humidity
9466;DHT22;4771;48.726;9.006;2023-04-24T00:01:33;11.40;99.90
9466;DHT22;4771;48.726;9.006;2023-04-24T00:04:02;11.40;99.90
9466;DHT22;4771;48.726;9.006;2023-04-24T00:06:29;11.40;99.90
9466;DHT22;4771;48.726;9.006;2023-04-24T00:08:58;11.40;99.90
9466;DHT22;4771;48.726;9.006;2023-04-24T00:11:27;11.40;99.90
9466;DHT22;4771;48.726;9.006;2023-04-24T00:13:54;11.40;99.90
9466;DHT22;4771;48.726;9.006;2023-04-24T00:16:22;11.20;99.90
9466;DHT22;4771;48.726;9.006;2023-04-24T00:18:49;11.40;99.90
9466;DHT22;4771;48.726;9.006;2023-04-24T00:21:18;11.40;99.90
9466;DHT22;4771;48.726;9.006;2023-04-24T00:23:44;11.60;99.90
9466;DHT22;4771;48.726;9.006;2023-04-24T00:26:11;11.50;99.90
9466;DHT22;4771;48.726;9.006;2023-04-24T00:28:40;11.50;99.90
9466;DHT22;4771;48.726;9.006;2023-04-24T00:31:07;11.40;99.90
9466;DHT22;4771;48.726;9.006;2023-04-24T00:33:34;11.50;99.90
9466;DHT22;4771;48.726;9.006;2023-04-24T00:36:00;11.50;99.90
9466;DHT22;4771;48.726;9.006;2023-04-24T00:38:27;11.50;99.90
9466;DHT22;4771;48.726;9.006;2023-04-24T00:40:54;11.50;99.90
9466;DHT22;4771;48.726;9.006;2023-04-24T00:43:21;11.50;99.90
9466;DHT22;4771;48.726;9.006;2023-04-24T00:45:50;11.50;99.90
9466;DHT22;4771;48.726;9.006;2023-04-24T00:48:17;11.50;99.90
9466;DHT22;4771;48.726;9.006;2023-04-24T00:50:44;11.50;99.90
9466;DHT22;4771;48.726;9.006;2023-04-24T00:53:12;11.50;99.90
9466;DHT22;4771;48.726;9.006;2023-04-24T00:55:39;11.40;99.90
9466;DHT22;4771;48.726;9.006;2023-04-24T00:58:06;11.50;99.90
9466;DHT22;4771;48.726;9.006;2023-04-24T01:00:33;11.50;99.90
9466;DHT22;4771;48.726;9.006;2023-04-24T01:03:04;11.50;99.90
9466;DHT22;4771;48.726;9.006;2023-04-24T01:05:32;11.40;99.90
9466;DHT22;4771;48.726;9.006;2023-04-24T01:08:00;11.50;99.90
9466;DHT22;4771;48.726;9.006;2023-04-24T01:10:29;11.50;99.90
9466;DHT22;4771;48.726;9.006;2023-04-24T01:12:58;11.50;99.90
9466;DHT22;4771;48.726;9.006;2023-04-24T01:15:25;11.50;99.90
9466;DHT22;4771;48.726;9.006;2023-04-24T01:17:52;11.60;99.90
9466;DHT22;4771;48.726;9.006;2023-04-24T01:20:20;11.50;99.90
9466;DHT22;4771;48.726;9.006;2023-04-24T01:22:49;11.60;99.90
9466;DHT22;4771;48.726;9.006;2023-04-24T01:25:16;11.50;99.90
9466;DHT22;4771;48.726;9.006;2023-04-24T01:27:43;11.50;99.90
9466;DHT22;4771;48.726;9.006;2023-04-24T01:30:11;11.60;99.90
9466;DHT22;4771;48.726;9.006;2023-04-24T01:32:38;11.50;99.90
9466;DHT22;4771;48.726;9.006;2023-04-24T01:35:06;11.50;99.90
9466;DHT22;4771;48.726;9.006;2023-04-24T01:37:34;11.50;99.90
9466;DHT22;4771;48.726;9.006;2023-04-24T01:40:04;11.50;99.90
9466;DHT22;4771;48.726;9.006;2023-04-24T01:42:32;11.50;99.90
9466;DHT22;4771;48.726;9.006;2023-04-24T01:44:59;11.40;99.90
9466;DHT22;4771;48.726;9.006;2023-04-24T01:47:27;11.50;99.90
9466;DHT22;4771;48.726;9.006;2023-04-24T01:49:55;11.50;99.90
9466;DHT22;4771;48.726;9.006;2023-04-24T01:52:21;11.50;99.90
9466;DHT22;4771;48.726;9.006;2023-04-24T01:54:48;11.40;99.90
9466;DHT22;4771;48.726;9.006;2023-04-24T01:57:17;11.40;99.90
9466;DHT22;4771;48.726;9.006;2023-04-24T01:59:44;11.40;99.90
9466;DHT22;4771;48.726;9.006;2023-04-24T02:02:11;11.40;99.90
9466;DHT22;4771;48.726;9.006;2023-04-24T02:04:38;11.40;99.90
9466;DHT22;4771;48.726;9.006;2023-04-24T02:07:05;11.40;99.90
9466;DHT22;4771;48.726;9.006;2023-04-24T02:09:32;11.40;99.90
9466;DHT22;4771;48.726;9.006;2023-04-24T02:11:59;11.30;99.90
9466;DHT22;4771;48.726;9.006;2023-04-24T02:14:28;11.20;99.90
9466;DHT22;4771;48.726;9.006;2023-04-24T02:16:55;11.20;99.90
9466;DHT22;4771;48.726;9.006;2023-04-24T02:19:22;11.20;99.90
9466;DHT22;4771;48.726;9.006;2023-04-24T02:21:49;11.20;99.90
9466;DHT22;4771;48.726;9.006;2023-04-24T02:24:16;11.20;99.90
9466;DHT22;4771;48.726;9.006;2023-04-24T02:26:42;11.20;99.90
9466;DHT22;4771;48.726;9.006;2023-04-24T02:29:09;11.10;99.90
9466;DHT22;4771;48.726;9.006;2023-04-24T02:31:37;11.10;99.90
9466;DHT22;4771;48.726;9.006;2023-04-24T02:34:04;11.10;99.90
9466;DHT22;4771;48.726;9.006;2023-04-24T02:36:31;11.20;99.90
9466;DHT22;4771;48.726;9.006;2023-04-24T02:38:58;11.20;99.90
9466;DHT22;4771;48.726;9.006;2023-04-24T02:41:26;11.20;99.90
9466;DHT22;4771;48.726;9.006;2023-04-24T02:43:57;11.20;99.90
9466;DHT22;4771;48.726;9.006;2023-04-24T02:46:24;11.20;99.90
9466;DHT22;4771;48.726;9.006;2023-04-24T02:48:52;11.10;99.90
9466;DHT22;4771;48.726;9.006;2023-04-24T02:51:19;11.10;99.90
9466;DHT22;4771;48.726;9.006;2023-04-24T02:53:46;11.10;99.90
9466;DHT22;4771;48.726;9.006;2023-04-24T02:56:12;11.10;99.90
9466;DHT22;4771;48.726;9.006;2023-04-24T02:58:39;11.10;99.90
9466;DHT22;4771;48.726;9.006;2023-04-24T03:01:07;11.10;99.90
9466;DHT22;4771;48.726;9.006;2023-04-24T03:03:35;11.10;99.90
9466;DHT22;4771;48.726;9.006;2023-04-24T03:06:03;11.10;99.90
9466;DHT22;4771;48.726;9.006;2023-04-24T03:08:31;11.10;99.90
9466;DHT22;4771;48.726;9.006;2023-04-24T03:10:58;11.00;99.90
9466;DHT22;4771;48.726;9.006;2023-04-24T03:13:25;11.00;99.90
9466;DHT22;4771;48.726;9.006;2023-04-24T03:15:52;11.00;99.90
9466;DHT22;4771;48.726;9.006;2023-04-24T03:18:19;10.80;99.90
9466;DHT22;4771;48.726;9.006;2023-04-24T03:20:46;10.80;99.90
9466;DHT22;4771;48.726;9.006;2023-04-24T03:23:14;10.80;99.90
9466;DHT22;4771;48.726;9.006;2023-04-24T03:25:41;10.80;99.90
9466;DHT22;4771;48.726;9.006;2023-04-24T03:28:09;10.80;99.90
9466;DHT22;4771;48.726;9.006;2023-04-24T03:30:36;10.80;99.90
9466;DHT22;4771;48.726;9.006;2023-04-24T03:33:03;10.80;99.90
9466;DHT22;4771;48.726;9.006;2023-04-24T03:35:30;10.90;99.90
9466;DHT22;4771;48.726;9.006;2023-04-24T03:37:56;10.90;99.90
9466;DHT22;4771;48.726;9.006;2023-04-24T03:40:25;10.90;99.90
9466;DHT22;4771;48.726;9.006;2023-04-24T03:42:51;10.90;99.90
9466;DHT22;4771;48.726;9.006;2023-04-24T03:45:18;10.90;99.90
9466;DHT22;4771;48.726;9.006;2023-04-24T03:47:45;10.90;99.90
9466;DHT22;4771;48.726;9.006;2023-04-24T03:50:12;10.90;99.90
9466;DHT22;4771;48.726;9.006;2023-04-24T03:52:39;10.90;99.90
9466;DHT22;4771;48.726;9.006;2023-04-24T03:55:07;10.90;99.90
9466;DHT22;4771;48.726;9.006;2023-04-24T03:57:35;10.90;99.90
9466;DHT22;4771;48.726;9.006;2023-04-24T04:00:02;10.90;99.90
9466;DHT22;4771;48.726;9.006;2023-04-24T04:02:30;10.90;99.90
9466;DHT22;4771;48.726;9.006;2023-04-24T04:04:57;10.90;99.90
9466;DHT22;4771;48.726;9.006;2023-04-24T04:07:24;10.90;99.90
9466;DHT22;4771;48.726;9.006;2023-04-24T04:09:51;10.90;99.90
9466;DHT22;4771;48.726;9.006;2023-04-24T04:12:18;11.00;99.90
9466;DHT22;4771;48.726;9.006;2023-04-24T04:14:46;10.90;99.90
9466;DHT22;4771;48.726;9.006;2023-04-24T04:17:13;10.90;99.90
9466;DHT22;4771;48.726;9.006;2023-04-24T04:19:40;10.60;99.90
9466;DHT22;4771;48.726;9.006;2023-04-24T04:22:07;10.40;99.90
9466;DHT22;4771;48.726;9.006;2023-04-24T04:24:34;9.70;99.90
9466;DHT22;4771;48.726;9.006;2023-04-24T04:27:03;9.40;99.90
9466;DHT22;4771;48.726;9.006;2023-04-24T04:29:30;9.20;99.90
9466;DHT22;4771;48.726;9.006;2023-04-24T04:31:59;9.00;99.90
9466;DHT22;4771;48.726;9.006;2023-04-24T04:34:27;8.80;99.90
9466;DHT22;4771;48.726;9.006;2023-04-24T04:36:54;8.60;99.90
9466;DHT22;4771;48.726;9.006;2023-04-24T04:39:21;8.70;99.90
9466;DHT22;4771;48.726;9.006;2023-04-24T04:41:48;8.80;99.90
9466;DHT22;4771;48.726;9.006;2023-04-24T04:44:15;8.80;99.90
9466;DHT22;4771;48.726;9.006;2023-04-24T04:46:42;8.80;99.90
9466;DHT22;4771;48.726;9.006;2023-04-24T04:49:11;8.60;99.90
9466;DHT22;4771;48.726;9.006;2023-04-24T04:51:38;8.70;99.90
9466;DHT22;4771;48.726;9.006;2023-04-24T04:54:05;8.70;99.90
9466;DHT22;4771;48.726;9.006;2023-04-24T04:56:33;8.80;99.90
9466;DHT22;4771;48.726;9.006;2023-04-24T04:59:00;8.80;99.90
9466;DHT22;4771;48.726;9.006;2023-04-24T05:01:26;8.70;99.90
9466;DHT22;4771;48.726;9.006;2023-04-24T05:03:53;8.70;99.90
9466;DHT22;4771;48.726;9.006;2023-04-24T05:06:22;8.80;99.90
9466;DHT22;4771;48.726;9.006;2023-04-24T05:08:50;8.70;99.90
9466;DHT22;4771;48.726;9.006;2023-04-24T05:11:21;8.90;99.90
9466;DHT22;4771;48.726;9.006;2023-04-24T05:13:48;8.90;99.90
9466;DHT22;4771;48.726;9.006;2023-04-24T05:16:16;8.90;99.90
9466;DHT22;4771;48.726;9.006;2023-04-24T05:18:43;8.80;99.90
9466;DHT22;4771;48.726;9.006;2023-04-24T05:21:10;8.90;99.90
9466;DHT22;4771;48.726;9.006;2023-04-24T05:23:38;8.80;99.90
9466;DHT22;4771;48.726;9.006;2023-04-24T05:26:05;9.00;99.90
9466;DHT22;4771;48.726;9.006;2023-04-24T05:28:32;9.10;99.90
9466;DHT22;4771;48.726;9.006;2023-04-24T05:30:59;9.20;99.90
9466;DHT22;4771;48.726;9.006;2023-04-24T05:33:26;9.20;99.90
9466;DHT22;4771;48.726;9.006;2023-04-24T05:35:53;9.20;99.90
9466;DHT22;4771;48.726;9.006;2023-04-24T05:38:20;9.30;99.90
9466;DHT22;4771;48.726;9.006;2023-04-24T05:40:49;9.30;99.90
9466;DHT22;4771;48.726;9.006;2023-04-24T05:43:16;9.40;99.90
9466;DHT22;4771;48.726;9.006;2023-04-24T05:45:42;9.50;99.90
9466;DHT22;4771;48.726;9.006;2023-04-24T05:48:09;9.50;99.90
9466;DHT22;4771;48.726;9.006;2023-04-24T05:50:36;9.50;99.90
9466;DHT22;4771;48.726;9.006;2023-04-24T05:53:04;9.40;99.90
9466;DHT22;4771;48.726;9.006;2023-04-24T05:55:32;9.50;99.90
9466;DHT22;4771;48.726;9.006;2023-04-24T05:58:00;9.50;99.90
9466;DHT22;4771;48.726;9.006;2023-04-24T06:00:27;9.50;99.90
9466;DHT22;4771;48.726;9.006;2023-04-24T06:02:55;9.50;99.90
9466;DHT22;4771;48.726;9.006;2023-04-24T06:05:21;9.50;99.90
9466;DHT22;4771;48.726;9.006;2023-04-24T06:07:48;9.50;99.90
9466;DHT22;4771;48.726;9.006;2023-04-24T06:10:16;9.40;99.90
9466;DHT22;4771;48.726;9.006;2023-04-24T06:12:42;9.40;99.90
9466;DHT22;4771;48.726;9.006;2023-04-24T06:15:11;9.40;99.90
9466;DHT22;4771;48.726;9.006;2023-04-24T06:17:38;9.50;99.90
9466;DHT22;4771;48.726;9.006;2023-04-24T06:20:06;9.60;99.90
9466;DHT22;4771;48.726;9.006;2023-04-24T06:22:33;9.70;99.90
9466;DHT22;4771;48.726;9.006;2023-04-24T06:25:00;9.70;99.90
9466;DHT22;4771;48.726;9.006;2023-04-24T06:27:28;9.70;99.90
9466;DHT22;4771;48.726;9.006;2023-04-24T06:29:54;9.70;99.90
9466;DHT22;4771;48.726;9.006;2023-04-24T06:32:23;9.80;99.90
9466;DHT22;4771;48.726;9.006;2023-04-24T06:34:51;9.80;99.90
9466;DHT22;4771;48.726;9.006;2023-04-24T06:37:18;9.80;99.90
9466;DHT22;4771;48.726;9.006;2023-04-24T06:39:46;9.80;99.90
9466;DHT22;4771;48.726;9.006;2023-04-24T06:42:13;9.90;99.90
9466;DHT22;4771;48.726;9.006;2023-04-24T06:44:40;10.00;99.90
9466;DHT22;4771;48.726;9.006;2023-04-24T06:47:07;10.10;99.90
9466;DHT22;4771;48.726;9.006;2023-04-24T06:49:36;10.20;99.90
9466;DHT22;4771;48.726;9.006;2023-04-24T06:52:03;10.20;99.90
9466;DHT22;4771;48.726;9.006;2023-04-24T06:54:31;10.20;99.90
9466;DHT22;4771;48.726;9.006;2023-04-24T06:56:58;10.20;99.90
9466;DHT22;4771;48.726;9.006;2023-04-24T06:59:26;10.10;99.90
9466;DHT22;4771;48.726;9.006;2023-04-24T07:01:53;10.10;99.90
9466;DHT22;4771;48.726;9.006;2023-04-24T07:04:19;10.20;99.90
9466;DHT22;4771;48.726;9.006;2023-04-24T07:06:48;10.30;99.90
9466;DHT22;4771;48.726;9.006;2023-04-24T07:09:16;10.30;99.90
9466;DHT22;4771;48.726;9.006;2023-04-24T07:11:44;10.40;99.90
9466;DHT22;4771;48.726;9.006;2023-04-24T07:14:11;10.40;99.90
9466;DHT22;4771;48.726;9.006;2023-04-24T07:16:38;10.30;99.90
9466;DHT22;4771;48.726;9.006;2023-04-24T07:19:04;10.30;99.90
9466;DHT22;4771;48.726;9.006;2023-04-24T07:21:32;10.30;99.90
9466;DHT22;4771;48.726;9.006;2023-04-24T07:24:00;10.20;99.90
9466;DHT22;4771;48.726;9.006;2023-04-24T07:26:27;10.30;99.90
9466;DHT22;4771;48.726;9.006;2023-04-24T07:28:55;10.10;99.90
9466;DHT22;4771;48.726;9.006;2023-04-24T07:31:22;10.10;99.90
9466;DHT22;4771;48.726;9.006;2023-04-24T07:33:49;10.10;99.90
9466;DHT22;4771;48.726;9.006;2023-04-24T07:36:16;10.20;99.90
9466;DHT22;4771;48.726;9.006;2023-04-24T07:38:44;10.20;99.90
9466;DHT22;4771;48.726;9.006;2023-04-24T07:41:13;10.20;99.90
9466;DHT22;4771;48.726;9.006;2023-04-24T07:43:40;10.00;99.90
9466;DHT22;4771;48.726;9.006;2023-04-24T07:46:07;10.00;99.90
9466;DHT22;4771;48.726;9.006;2023-04-24T07:48:34;10.10;99.90
9466;DHT22;4771;48.726;9.006;2023-04-24T07:51:01;10.10;99.90
9466;DHT22;4771;48.726;9.006;2023-04-24T07:53:28;10.10;99.90
9466;DHT22;4771;48.726;9.006;2023-04-24T07:55:56;10.10;99.90
9466;DHT22;4771;48.726;9.006;2023-04-24T07:58:24;10.00;99.90
9466;DHT22;4771;48.726;9.006;2023-04-24T08:00:51;10.10;99.90
9466;DHT22;4771;48.726;9.006;2023-04-24T08:03:18;10.00;99.90
9466;DHT22;4771;48.726;9.006;2023-04-24T08:05:45;9.90;99.90
9466;DHT22;4771;48.726;9.006;2023-04-24T08:08:12;9.80;99.90
9466;DHT22;4771;48.726;9.006;2023-04-24T08:10:40;9.90;99.90
9466;DHT22;4771;48.726;9.006;2023-04-24T08:13:07;9.80;99.90
9466;DHT22;4771;48.726;9.006;2023-04-24T08:15:35;9.90;99.90
9466;DHT22;4771;48.726;9.006;2023-04-24T08:18:02;10.00;99.90
9466;DHT22;4771;48.726;9.006;2023-04-24T08:20:28;10.10;99.90
9466;DHT22;4771;48.726;9.006;2023-04-24T08:22:55;10.20;99.90
9466;DHT22;4771;48.726;9.006;2023-04-24T08:25:23;10.10;99.90
9466;DHT22;4771;48.726;9.006;2023-04-24T08:27:50;10.30;99.90
9466;DHT22;4771;48.726;9.006;2023-04-24T08:30:17;10.50;99.90
9466;DHT22;4771;48.726;9.006;2023-04-24T08:32:45;10.40;99.90
9466;DHT22;4771;48.726;9.006;2023-04-24T08:35:12;10.40;99.90
9466;DHT22;4771;48.726;9.006;2023-04-24T08:37:39;10.40;99.90
9466;DHT22;4771;48.726;9.006;2023-04-24T08:40:11;10.40;99.90
9466;DHT22;4771;48.726;9.006;2023-04-24T08:42:40;10.50;99.90
9466;DHT22;4771;48.726;9.006;2023-04-24T08:45:10;10.60;99.90
9466;DHT22;4771;48.726;9.006;2023-04-24T08:47:38;10.70;99.90
9466;DHT22;4771;48.726;9.006;2023-04-24T08:50:07;10.60;99.90
9466;DHT22;4771;48.726;9.006;2023-04-24T08:52:35;10.40;99.90
9466;DHT22;4771;48.726;9.006;2023-04-24T08:55:02;10.50;99.90
9466;DHT22;4771;48.726;9.006;2023-04-24T08:57:30;10.60;99.90
9466;DHT22;4771;48.726;9.006;2023-04-24T08:59:58;10.70;99.90
9466;DHT22;4771;48.726;9.006;2023-04-24T09:02:25;10.30;99.90
9466;DHT22;4771;48.726;9.006;2023-04-24T09:04:53;10.40;99.90
9466;DHT22;4771;48.726;9.006;2023-04-24T09:07:22;10.20;99.90
9466;DHT22;4771;48.726;9.006;2023-04-24T09:09:51;10.20;99.90
9466;DHT22;4771;48.726;9.006;2023-04-24T09:12:18;10.30;99.90
9466;DHT22;4771;48.726;9.006;2023-04-24T09:14:45;10.40;99.90
9466;DHT22;4771;48.726;9.006;2023-04-24T09:17:12;10.30;99.90
9466;DHT22;4771;48.726;9.006;2023-04-24T09:19:39;10.40;99.90
9466;DHT22;4771;48.726;9.006;2023-04-24T09:22:07;10.40;99.90
9466;DHT22;4771;48.726;9.006;2023-04-24T09:24:35;10.50;99.90
9466;DHT22;4771;48.726;9.006;2023-04-24T09:27:02;10.60;99.90
9466;DHT22;4771;48.726;9.006;2023-04-24T09:29:30;10.70;99.90
9466;DHT22;4771;48.726;9.006;2023-04-24T09:31:58;10.90;99.90
9466;DHT22;4771;48.726;9.006;2023-04-24T09:34:26;11.10;99.90
9466;DHT22;4771;48.726;9.006;2023-04-24T09:36:54;11.10;99.90
9466;DHT22;4771;48.726;9.006;2023-04-24T09:39:21;11.20;99.90
9466;DHT22;4771;48.726;9.006;2023-04-24T09:41:50;11.10;99.90
9466;DHT22;4771;48.726;9.006;2023-04-24T09:44:18;11.00;99.90
9466;DHT22;4771;48.726;9.006;2023-04-24T09:46:51;10.80;99.90
9466;DHT22;4771;48.726;9.006;2023-04-24T09:49:22;10.50;99.90
9466;DHT22;4771;48.726;9.006;2023-04-24T09:51:49;10.50;99.90
9466;DHT22;4771;48.726;9.006;2023-04-24T09:54:17;10.60;99.90
9466;DHT22;4771;48.726;9.006;2023-04-24T09:56:47;10.70;99.90
9466;DHT22;4771;48.726;9.006;2023-04-24T09:59:16;10.60;99.90
9466;DHT22;4771;48.726;9.006;2023-04-24T10:01:44;10.50;99.90
9466;DHT22;4771;48.726;9.006;2023-04-24T10:04:17;10.50;99.90
9466;DHT22;4771;48.726;9.006;2023-04-24T10:06:45;10.80;99.90
9466;DHT22;4771;48.726;9.006;2023-04-24T10:09:14;11.00;99.90
9466;DHT22;4771;48.726;9.006;2023-04-24T10:11:42;11.00;99.90
9466;DHT22;4771;48.726;9.006;2023-04-24T10:14:12;11.00;99.90
9466;DHT22;4771;48.726;9.006;2023-04-24T10:16:41;10.80;99.90
9466;DHT22;4771;48.726;9.006;2023-04-24T10:19:09;11.10;99.90
9466;DHT22;4771;48.726;9.006;2023-04-24T10:21:40;11.40;99.90
9466;DHT22;4771;48.726;9.006;2023-04-24T10:24:12;11.50;99.90
9466;DHT22;4771;48.726;9.006;2023-04-24T10:26:40;11.40;99.90
9466;DHT22;4771;48.726;9.006;2023-04-24T10:29:08;11.50;99.90
9466;DHT22;4771;48.726;9.006;2023-04-24T10:31:37;11.70;99.90
9466;DHT22;4771;48.726;9.006;2023-04-24T10:34:06;11.80;99.90
9466;DHT22;4771;48.726;9.006;2023-04-24T10:36:34;11.70;99.90
9466;DHT22;4771;48.726;9.006;2023-04-24T10:39:06;11.50;99.90
9466;DHT22;4771;48.726;9.006;2023-04-24T10:41:37;11.70;99.90
9466;DHT22;4771;48.726;9.006;2023-04-24T10:44:05;12.00;99.90
9466;DHT22;4771;48.726;9.006;2023-04-24T10:46:32;12.00;99.90
9466;DHT22;4771;48.726;9.006;2023-04-24T10:48:59;12.10;99.90
9466;DHT22;4771;48.726;9.006;2023-04-24T10:51:46;11.90;99.90
9466;DHT22;4771;48.726;9.006;2023-04-24T10:54:24;11.90;99.90
9466;DHT22;4771;48.726;9.006;2023-04-24T10:56:52;11.80;99.90
9466;DHT22;4771;48.726;9.006;2023-04-24T10:59:26;11.80;99.90
9466;DHT22;4771;48.726;9.006;2023-04-24T11:01:54;11.50;99.90
9466;DHT22;4771;48.726;9.006;2023-04-24T11:04:30;11.40;99.90
9466;DHT22;4771;48.726;9.006;2023-04-24T11:06:58;11.40;99.90
9466;DHT22;4771;48.726;9.006;2023-04-24T11:09:27;11.30;99.90
9466;DHT22;4771;48.726;9.006;2023-04-24T11:12:03;10.90;99.90
9466;DHT22;4771;48.726;9.006;2023-04-24T11:15:01;10.90;99.90
9466;DHT22;4771;48.726;9.006;2023-04-24T11:17:32;10.80;99.90
9466;DHT22;4771;48.726;9.006;2023-04-24T11:20:03;10.90;99.90
9466;DHT22;4771;48.726;9.006;2023-04-24T11:22:35;10.90;99.90
9466;DHT22;4771;48.726;9.006;2023-04-24T11:25:02;10.80;99.90
9466;DHT22;4771;48.726;9.006;2023-04-24T11:27:31;10.90;99.90
9466;DHT22;4771;48.726;9.006;2023-04-24T11:30:00;11.10;99.90
9466;DHT22;4771;48.726;9.006;2023-04-24T11:32:28;10.90;99.90
9466;DHT22;4771;48.726;9.006;2023-04-24T11:34:57;10.90;99.90
9466;DHT22;4771;48.726;9.006;2023-04-24T11:37:27;10.60;99.90
9466;DHT22;4771;48.726;9.006;2023-04-24T11:39:57;10.40;99.90
9466;DHT22;4771;48.726;9.006;2023-04-24T11:42:25;10.30;99.90
9466;DHT22;4771;48.726;9.006;2023-04-24T11:44:52;10.40;99.90
9466;DHT22;4771;48.726;9.006;2023-04-24T11:47:20;10.50;99.90
9466;DHT22;4771;48.726;9.006;2023-04-24T11:49:50;10.70;99.90
9466;DHT22;4771;48.726;9.006;2023-04-24T11:52:17;10.70;99.90
9466;DHT22;4771;48.726;9.006;2023-04-24T11:54:48;10.90;99.90
9466;DHT22;4771;48.726;9.006;2023-04-24T11:57:19;11.10;99.90
9466;DHT22;4771;48.726;9.006;2023-04-24T11:59:46;11.10;99.90
9466;DHT22;4771;48.726;9.006;2023-04-24T12:02:21;11.10;99.90
9466;DHT22;4771;48.726;9.006;2023-04-24T12:04:48;10.90;99.90
9466;DHT22;4771;48.726;9.006;2023-04-24T12:07:15;10.80;99.90
9466;DHT22;4771;48.726;9.006;2023-04-24T12:09:43;10.60;99.90
9466;DHT22;4771;48.726;9.006;2023-04-24T12:12:11;10.60;99.90
9466;DHT22;4771;48.726;9.006;2023-04-24T12:14:44;10.60;99.90
9466;DHT22;4771;48.726;9.006;2023-04-24T12:17:11;10.60;99.90
9466;DHT22;4771;48.726;9.006;2023-04-24T12:19:45;10.50;99.90
9466;DHT22;4771;48.726;9.006;2023-04-24T12:22:13;10.70;99.90
9466;DHT22;4771;48.726;9.006;2023-04-24T12:24:55;10.90;99.90
9466;DHT22;4771;48.726;9.006;2023-04-24T12:27:23;10.90;99.90
9466;DHT22;4771;48.726;9.006;2023-04-24T12:29:55;10.90;99.90
9466;DHT22;4771;48.726;9.006;2023-04-24T12:32:23;10.90;99.90
9466;DHT22;4771;48.726;9.006;2023-04-24T12:34:50;10.90;99.90
9466;DHT22;4771;48.726;9.006;2023-04-24T12:37:18;11.00;99.90
9466;DHT22;4771;48.726;9.006;2023-04-24T12:40:01;10.80;99.90
9466;DHT22;4771;48.726;9.006;2023-04-24T12:42:30;10.80;99.90
9466;DHT22;4771;48.726;9.006;2023-04-24T12:44:59;10.90;99.90
9466;DHT22;4771;48.726;9.006;2023-04-24T12:47:26;10.70;99.90
9466;DHT22;4771;48.726;9.006;2023-04-24T12:49:54;10.60;99.90
9466;DHT22;4771;48.726;9.006;2023-04-24T12:52:21;10.60;99.90
9466;DHT22;4771;48.726;9.006;2023-04-24T12:54:49;10.60;99.90
9466;DHT22;4771;48.726;9.006;2023-04-24T12:57:16;10.60;99.90
9466;DHT22;4771;48.726;9.006;2023-04-24T12:59:43;10.50;99.90
9466;DHT22;4771;48.726;9.006;2023-04-24T13:02:11;10.50;99.90
9466;DHT22;4771;48.726;9.006;2023-04-24T13:04:38;10.40;99.90
9466;DHT22;4771;48.726;9.006;2023-04-24T13:07:05;10.30;99.90
9466;DHT22;4771;48.726;9.006;2023-04-24T13:09:34;10.40;99.90
9466;DHT22;4771;48.726;9.006;2023-04-24T13:12:02;10.30;99.90
9466;DHT22;4771;48.726;9.006;2023-04-24T13:14:30;10.30;99.90
9466;DHT22;4771;48.726;9.006;2023-04-24T13:16:57;10.50;99.90
9466;DHT22;4771;48.726;9.006;2023-04-24T13:19:26;10.70;99.90
9466;DHT22;4771;48.726;9.006;2023-04-24T13:21:54;10.80;99.90
9466;DHT22;4771;48.726;9.006;2023-04-24T13:24:22;10.90;99.90
9466;DHT22;4771;48.726;9.006;2023-04-24T13:26:50;10.90;99.90
9466;DHT22;4771;48.726;9.006;2023-04-24T13:29:17;10.90;99.90
9466;DHT22;4771;48.726;9.006;2023-04-24T13:31:44;10.70;99.90
9466;DHT22;4771;48.726;9.006;2023-04-24T13:34:11;10.50;99.90
9466;DHT22;4771;48.726;9.006;2023-04-24T13:36:39;10.30;99.90
9466;DHT22;4771;48.726;9.006;2023-04-24T13:39:06;10.20;99.90
9466;DHT22;4771;48.726;9.006;2023-04-24T13:41:33;10.20;99.90
9466;DHT22;4771;48.726;9.006;2023-04-24T13:44:01;10.20;99.90
9466;DHT22;4771;48.726;9.006;2023-04-24T13:46:28;10.10;99.90
9466;DHT22;4771;48.726;9.006;2023-04-24T13:48:55;10.10;99.90
9466;DHT22;4771;48.726;9.006;2023-04-24T13:51:22;10.30;99.90
9466;DHT22;4771;48.726;9.006;2023-04-24T13:53:50;10.30;99.90
9466;DHT22;4771;48.726;9.006;2023-04-24T13:56:17;10.40;99.90
9466;DHT22;4771;48.726;9.006;2023-04-24T13:58:44;10.50;99.90
9466;DHT22;4771;48.726;9.006;2023-04-24T14:01:11;10.60;99.90
9466;DHT22;4771;48.726;9.006;2023-04-24T14:03:38;10.30;99.90
9466;DHT22;4771;48.726;9.006;2023-04-24T14:06:05;10.10;99.90
9466;DHT22;4771;48.726;9.006;2023-04-24T14:08:33;10.00;99.90
9466;DHT22;4771;48.726;9.006;2023-04-24T14:11:01;9.70;99.90
9466;DHT22;4771;48.726;9.006;2023-04-24T14:13:28;9.50;99.90
9466;DHT22;4771;48.726;9.006;2023-04-24T14:15:55;9.40;99.90
9466;DHT22;4771;48.726;9.006;2023-04-24T14:18:22;9.10;99.90
9466;DHT22;4771;48.726;9.006;2023-04-24T14:20:49;9.10;99.90
9466;DHT22;4771;48.726;9.006;2023-04-24T14:23:16;9.30;99.90
9466;DHT22;4771;48.726;9.006;2023-04-24T14:25:43;9.40;99.90
9466;DHT22;4771;48.726;9.006;2023-04-24T14:28:11;9.80;99.90
9466;DHT22;4771;48.726;9.006;2023-04-24T14:30:38;10.10;99.90
9466;DHT22;4771;48.726;9.006;2023-04-24T14:33:06;10.00;99.90
9466;DHT22;4771;48.726;9.006;2023-04-24T14:35:33;10.10;99.90
9466;DHT22;4771;48.726;9.006;2023-04-24T14:38:00;10.20;99.90
9466;DHT22;4771;48.726;9.006;2023-04-24T14:40:27;10.40;99.90
9466;DHT22;4771;48.726;9.006;2023-04-24T14:42:54;10.30;99.90
9466;DHT22;4771;48.726;9.006;2023-04-24T14:45:24;10.40;99.90
9466;DHT22;4771;48.726;9.006;2023-04-24T14:47:51;10.50;99.90
9466;DHT22;4771;48.726;9.006;2023-04-24T14:50:18;10.50;99.90
9466;DHT22;4771;48.726;9.006;2023-04-24T14:52:45;10.70;99.90
9466;DHT22;4771;48.726;9.006;2023-04-24T14:55:12;10.90;99.90
9466;DHT22;4771;48.726;9.006;2023-04-24T14:57:39;10.90;99.90
9466;DHT22;4771;48.726;9.006;2023-04-24T15:00:07;10.80;99.90
9466;DHT22;4771;48.726;9.006;2023-04-24T15:02:37;10.90;99.90
9466;DHT22;4771;48.726;9.006;2023-04-24T15:05:07;11.00;99.90
9466;DHT22;4771;48.726;9.006;2023-04-24T15:07:34;10.90;99.90
9466;DHT22;4771;48.726;9.006;2023-04-24T15:10:02;10.90;99.90
9466;DHT22;4771;48.726;9.006;2023-04-24T15:12:29;10.80;99.90
9466;DHT22;4771;48.726;9.006;2023-04-24T15:14:57;10.70;99.90
9466;DHT22;4771;48.726;9.006;2023-04-24T15:17:24;10.70;99.90
9466;DHT22;4771;48.726;9.006;2023-04-24T15:19:52;10.70;99.90
9466;DHT22;4771;48.726;9.006;2023-04-24T15:22:19;10.80;99.90
9466;DHT22;4771;48.726;9.006;2023-04-24T15:24:46;10.70;99.90
9466;DHT22;4771;48.726;9.006;2023-04-24T15:27:13;10.70;99.90
9466;DHT22;4771;48.726;9.006;2023-04-24T15:29:40;10.50;99.90
9466;DHT22;4771;48.726;9.006;2023-04-24T15:32:07;10.40;99.90
9466;DHT22;4771;48.726;9.006;2023-04-24T15:34:34;10.20;99.90
9466;DHT22;4771;48.726;9.006;2023-04-24T15:37:02;10.20;99.90
9466;DHT22;4771;48.726;9.006;2023-04-24T15:39:29;10.10;99.90
9466;DHT22;4771;48.726;9.006;2023-04-24T15:41:56;10.00;99.90
9466;DHT22;4771;48.726;9.006;2023-04-24T15:44:23;9.80;99.90
9466;DHT22;4771;48.726;9.006;2023-04-24T15:46:50;9.80;99.90
9466;DHT22;4771;48.726;9.006;2023-04-24T15:49:17;9.90;99.90
9466;DHT22;4771;48.726;9.006;2023-04-24T15:51:45;10.00;99.90
9466;DHT22;4771;48.726;9.006;2023-04-24T15:54:13;10.00;99.90
9466;DHT22;4771;48.726;9.006;2023-04-24T15:56:40;9.90;99.90
9466;DHT22;4771;48.726;9.006;2023-04-24T15:59:07;10.20;99.90
9466;DHT22;4771;48.726;9.006;2023-04-24T16:01:34;10.40;99.90
9466;DHT22;4771;48.726;9.006;2023-04-24T16:04:00;10.40;99.90
9466;DHT22;4771;48.726;9.006;2023-04-24T16:06:27;10.50;99.90
9466;DHT22;4771;48.726;9.006;2023-04-24T16:08:54;10.60;99.90